Time;durP1;ratioP1;P1;durP2;ratioP2;P2;SDS_P1;SDS_P2;PMS_P1;PMS_P2;Temp;Humidity;BMP_temperature;BMP_pressure;BME280_temperature;BME280_humidity;BME280_pressure;Samples;Min_cycle;Max_cycle;Signal;HPM_P1;HPM_P2
2022/04/22 00:00:15;;;;;;;7.27;6.67;;;14.00;57.70;;;;;;6128244;29;20475;-62
2022/04/22 00:03:18;;;;;;;6.80;6.23;;;14.00;57.70;;;;;;6129744;29;20485;-63
2022/04/22 00:06:23;;;;;;;9.00;7.07;;;13.90;57.70;;;;;;6129547;29;21031;-62
2022/04/22 00:09:26;;;;;;;6.10;5.60;;;13.90;57.90;;;;;;6126598;29;20483;-61
2022/04/22 00:12:30;;;;;;;6.60;6.00;;;13.90;58.20;;;;;;6129087;29;20552;-61
2022/04/22 00:15:33;;;;;;;7.17;6.57;;;13.90;58.60;;;;;;6118291;29;20976;-62
2022/04/22 00:18:37;;;;;;;7.93;7.23;;;13.80;58.70;;;;;;6133995;29;20975;-62
2022/04/22 00:21:43;;;;;;;8.80;7.10;;;13.80;58.80;;;;;;6139176;29;20967;-61
2022/04/22 00:24:46;;;;;;;7.23;6.53;;;13.80;59.10;;;;;;6131139;29;20480;-61
2022/04/22 00:27:49;;;;;;;8.00;7.30;;;13.80;59.20;;;;;;6131190;29;20475;-61
2022/04/22 00:30:52;;;;;;;8.37;7.20;;;13.80;59.80;;;;;;6130718;29;20472;-61
2022/04/22 00:33:55;;;;;;;6.43;5.93;;;13.80;59.90;;;;;;6130700;29;20484;-63
2022/04/22 00:37:00;;;;;;;8.17;7.37;;;13.70;60.30;;;;;;6129915;29;20472;-63
2022/04/22 00:40:04;;;;;;;7.77;7.00;;;13.80;60.60;;;;;;6129402;29;20837;-63
2022/04/22 00:43:17;;;;;;;6.83;6.23;;;13.80;60.90;;;;;;6129538;29;20456;-63
2022/04/22 00:46:20;;;;;;;6.37;5.80;;;13.70;61.10;;;;;;6129913;29;20443;-63
2022/04/22 00:49:24;;;;;;;6.83;6.10;;;13.70;61.30;;;;;;6130321;29;20455;-63
2022/04/22 00:52:29;;;;;;;7.63;6.90;;;13.70;61.80;;;;;;6129767;29;20941;-62
2022/04/22 00:55:32;;;;;;;7.67;6.90;;;13.70;61.70;;;;;;6124383;29;129902;-62
2022/04/22 00:58:39;;;;;;;6.70;6.10;;;13.70;62.20;;;;;;6130510;29;20475;-62
2022/04/22 01:01:42;;;;;;;6.97;6.37;;;13.60;62.90;;;;;;6130191;29;20476;-62
2022/04/22 01:11:32;;;;;;;8.47;7.23;;;13.30;67.70;;;;;;6129704;29;20476;-62
2022/04/22 01:14:35;;;;;;;7.50;6.80;;;13.00;70.60;;;;;;6130275;29;20494;-62
2022/04/22 01:17:39;;;;;;;6.70;6.20;;;12.80;73.80;;;;;;6130371;29;20472;-62
2022/04/22 01:20:42;;;;;;;6.20;5.70;;;12.70;76.70;;;;;;6129778;29;20819;-62
2022/04/22 01:23:47;;;;;;;7.57;6.93;;;12.60;78.40;;;;;;6129996;29;20476;-62
2022/04/22 01:26:51;;;;;;;7.50;6.53;;;12.70;80.90;;;;;;6129756;29;20483;-62
2022/04/22 01:29:54;;;;;;;6.80;6.20;;;12.80;84.00;;;;;;6130129;29;20478;-62
2022/04/22 01:32:58;;;;;;;7.67;7.00;;;12.80;84.90;;;;;;6129562;29;20491;-63
2022/04/22 01:36:01;;;;;;;7.70;6.90;;;12.90;87.10;;;;;;6129627;29;20475;-62
2022/04/22 01:39:06;;;;;;;7.77;7.07;;;12.90;88.20;;;;;;6129480;29;20492;-62
2022/04/22 01:42:09;;;;;;;7.50;6.73;;;12.90;90.00;;;;;;6129981;29;20468;-63
2022/04/22 01:45:13;;;;;;;6.50;5.80;;;12.90;91.20;;;;;;6129531;29;20496;-63
2022/04/22 01:48:16;;;;;;;7.03;6.43;;;12.90;91.90;;;;;;6129562;29;20471;-62
2022/04/22 01:51:19;;;;;;;7.53;6.93;;;13.00;92.50;;;;;;6129226;29;20499;-62
2022/04/22 01:54:24;;;;;;;7.60;7.00;;;12.90;93.20;;;;;;6129234;29;20484;-62
2022/04/22 01:57:27;;;;;;;7.00;6.30;;;12.90;93.60;;;;;;6129313;29;20475;-62
2022/04/22 02:00:30;;;;;;;7.77;7.07;;;13.00;93.70;;;;;;6129314;29;20566;-63
2022/04/22 02:03:33;;;;;;;6.97;6.37;;;13.00;94.00;;;;;;6130712;29;20494;-63
2022/04/22 02:06:37;;;;;;;7.30;6.70;;;13.00;94.00;;;;;;6133475;29;20482;-62
2022/04/22 02:09:41;;;;;;;8.73;7.90;;;12.90;94.20;;;;;;6142289;29;20474;-62
2022/04/22 02:12:44;;;;;;;8.80;8.00;;;12.90;94.20;;;;;;6130382;29;20494;-62
2022/04/22 02:15:47;;;;;;;7.73;7.13;;;13.00;94.30;;;;;;6129854;29;20979;-63
2022/04/22 02:18:51;;;;;;;8.27;7.47;;;13.00;94.40;;;;;;6129717;29;20479;-62
2022/04/22 02:21:54;;;;;;;8.93;8.03;;;13.00;94.30;;;;;;6127547;29;20983;-63
2022/04/22 02:25:00;;;;;;;8.90;8.00;;;12.90;94.60;;;;;;6134274;28;20488;-63
2022/04/22 02:31:24;;;;;;;8.00;7.40;;;12.90;94.70;;;;;;6133682;28;20456;-62
2022/04/22 02:34:27;;;;;;;7.90;7.23;;;12.90;94.80;;;;;;6134019;29;20796;-62
2022/04/22 02:37:31;;;;;;;9.20;8.40;;;12.90;94.80;;;;;;6133548;29;20455;-62
2022/04/22 02:47:16;;;;;;;9.37;8.53;;;12.70;95.10;;;;;;6134120;29;20553;-62
2022/04/22 02:50:19;;;;;;;8.27;7.57;;;12.60;95.70;;;;;;6134134;29;20796;-62
2022/04/22 02:53:22;;;;;;;9.67;8.77;;;12.70;95.60;;;;;;6134051;29;20476;-62
2022/04/22 02:56:28;;;;;;;9.40;8.60;;;12.70;95.70;;;;;;6137547;29;20482;-62
2022/04/22 02:59:31;;;;;;;9.63;8.67;;;12.60;95.90;;;;;;6137332;29;20486;-62
2022/04/22 03:02:36;;;;;;;9.90;9.00;;;12.60;96.10;;;;;;6135748;29;20480;-63
2022/04/22 03:05:40;;;;;;;8.60;7.47;;;12.50;96.10;;;;;;6134960;29;21006;-62
2022/04/22 03:08:43;;;;;;;9.03;8.23;;;12.50;96.30;;;;;;6135146;29;20841;-62
2022/04/22 03:11:47;;;;;;;9.23;8.33;;;12.40;96.50;;;;;;6135403;28;20471;-62
2022/04/22 03:14:52;;;;;;;11.47;10.40;;;12.30;97.20;;;;;;6134409;29;20471;-62
2022/04/22 03:17:55;;;;;;;9.70;8.83;;;12.30;97.40;;;;;;6133436;28;20819;-62
2022/04/22 03:20:59;;;;;;;9.13;8.30;;;12.30;97.60;;;;;;6133448;29;20494;-62
2022/04/22 03:24:02;;;;;;;11.70;8.73;;;12.30;97.60;;;;;;6132542;28;20600;-62
2022/04/22 03:27:07;;;;;;;8.50;7.80;;;12.30;98.00;;;;;;6128336;29;20479;-62
2022/04/22 03:30:11;;;;;;;10.07;9.07;;;12.30;98.30;;;;;;6132481;29;20480;-62
2022/04/22 03:33:14;;;;;;;8.90;8.03;;;12.20;98.40;;;;;;6132185;29;20628;-62
2022/04/22 03:36:17;;;;;;;10.27;9.23;;;12.20;98.50;;;;;;6132139;29;20476;-62
2022/04/22 03:39:25;;;;;;;11.10;9.93;;;12.30;98.50;;;;;;6132141;29;20476;-62
2022/04/22 03:42:29;;;;;;;9.27;8.40;;;12.30;98.50;;;;;;6131781;29;20928;-63
2022/04/22 03:45:32;;;;;;;8.73;7.93;;;12.30;98.60;;;;;;6131987;29;20823;-63
2022/04/22 03:48:35;;;;;;;10.37;9.47;;;12.30;98.80;;;;;;6131810;29;20792;-62
2022/04/22 03:51:39;;;;;;;9.40;8.60;;;12.30;98.90;;;;;;6131940;29;20472;-62
2022/04/22 03:54:42;;;;;;;9.73;8.93;;;12.20;99.00;;;;;;6131582;29;21040;-62
2022/04/22 04:01:07;;;;;;;9.33;8.43;;;12.10;99.10;;;;;;6131711;29;20480;-62
2022/04/22 04:04:10;;;;;;;9.90;9.00;;;12.10;99.10;;;;;;6131567;28;20971;-62
2022/04/22 04:07:13;;;;;;;9.33;8.37;;;12.00;99.40;;;;;;6131260;29;20452;-62
2022/04/22 04:16:59;;;;;;;9.97;9.17;;;12.10;99.90;;;;;;6131580;29;20484;-62
2022/04/22 04:23:23;;;;;;;10.77;9.77;;;12.00;99.80;;;;;;6134747;29;20476;-62
2022/04/22 04:26:27;;;;;;;11.40;10.43;;;12.00;99.90;;;;;;6132011;29;20476;-62
2022/04/22 04:29:31;;;;;;;10.43;9.53;;;12.00;99.90;;;;;;6123238;29;20487;-63
2022/04/22 04:32:35;;;;;;;10.93;10.00;;;12.00;99.90;;;;;;6133695;28;20952;-63
2022/04/22 04:35:39;;;;;;;10.30;9.30;;;12.00;99.90;;;;;;6133535;29;20472;-63
2022/04/22 04:38:44;;;;;;;10.63;9.63;;;12.00;99.90;;;;;;6131903;29;20622;-63
2022/04/22 04:41:47;;;;;;;11.57;10.00;;;11.90;99.90;;;;;;6130791;28;20480;-63
2022/04/22 04:44:51;;;;;;;10.67;9.50;;;11.90;99.90;;;;;;6130417;29;20486;-63
2022/04/22 04:47:55;;;;;;;10.23;9.33;;;11.90;99.90;;;;;;6130803;28;20476;-63
2022/04/22 04:50:58;;;;;;;10.83;9.83;;;11.90;99.90;;;;;;6130517;29;20486;-63
2022/04/22 04:54:02;;;;;;;10.07;9.00;;;12.00;99.90;;;;;;6130480;28;20492;-63
2022/04/22 04:57:06;;;;;;;9.70;8.80;;;12.00;99.90;;;;;;6130604;29;20476;-63
2022/04/22 05:00:12;;;;;;;9.40;8.60;;;12.00;99.90;;;;;;6130196;29;20480;-63
2022/04/22 05:03:16;;;;;;;11.43;10.43;;;12.10;99.90;;;;;;6130386;29;20812;-63
2022/04/22 05:06:19;;;;;;;9.87;8.97;;;12.00;99.90;;;;;;6130396;29;20479;-63
2022/04/22 05:09:22;;;;;;;10.63;9.60;;;12.10;99.90;;;;;;6130157;29;20483;-63
2022/04/22 05:12:26;;;;;;;9.67;8.83;;;12.10;99.90;;;;;;6129882;29;20804;-63
2022/04/22 05:15:31;;;;;;;11.57;10.67;;;12.10;99.90;;;;;;6130059;29;20979;-63
2022/04/22 05:18:35;;;;;;;12.63;11.40;;;12.00;99.90;;;;;;6130194;29;20480;-63
2022/04/22 05:21:38;;;;;;;10.50;9.50;;;12.00;99.90;;;;;;6130024;29;20491;-63
2022/04/22 05:24:41;;;;;;;10.97;9.97;;;12.00;99.90;;;;;;6129667;29;20491;-64
2022/04/22 05:27:45;;;;;;;10.03;9.13;;;12.00;99.90;;;;;;6131257;28;20476;-64
2022/04/22 05:34:10;;;;;;;10.60;9.60;;;12.00;99.90;;;;;;6129364;29;20777;-63
2022/04/22 05:37:13;;;;;;;11.13;10.13;;;12.00;99.90;;;;;;6129842;29;20455;-63
2022/04/22 05:40:18;;;;;;;12.80;11.50;;;12.10;99.90;;;;;;6129886;29;20447;-63
2022/04/22 05:43:24;;;;;;;9.90;8.93;;;12.10;99.90;;;;;;6129841;29;20471;-63
2022/04/22 05:46:29;;;;;;;10.63;9.53;;;12.20;99.90;;;;;;6129679;29;20463;-63
2022/04/22 05:49:32;;;;;;;9.93;9.17;;;12.20;99.90;;;;;;6130664;29;20474;-63
2022/04/22 05:52:37;;;;;;;9.47;8.67;;;12.20;99.90;;;;;;6132743;29;20482;-63
2022/04/22 05:55:40;;;;;;;10.07;9.20;;;12.20;99.90;;;;;;6130033;29;20548;-63
2022/04/22 05:58:43;;;;;;;10.10;9.07;;;12.20;99.90;;;;;;6129390;29;20491;-63
2022/04/22 06:01:47;;;;;;;9.47;8.53;;;12.20;99.90;;;;;;6129890;29;20472;-63
2022/04/22 06:04:51;;;;;;;9.93;8.93;;;12.20;99.90;;;;;;6129607;29;20475;-63
2022/04/22 06:11:12;;;;;;;10.03;9.13;;;12.10;99.90;;;;;;6128466;29;20464;-64
2022/04/22 06:14:15;;;;;;;9.27;8.47;;;12.20;99.90;;;;;;6129485;29;21000;-64
2022/04/22 06:17:20;;;;;;;10.90;9.90;;;12.10;99.90;;;;;;6129698;29;20482;-63
2022/04/22 06:20:23;;;;;;;11.97;10.87;;;12.10;99.90;;;;;;6129179;29;20471;-62
2022/04/22 06:23:26;;;;;;;10.83;9.73;;;12.20;99.90;;;;;;6128928;29;20487;-62
2022/04/22 06:26:29;;;;;;;12.30;11.00;;;12.10;99.90;;;;;;6129397;29;20479;-62
2022/04/22 06:29:34;;;;;;;10.70;9.60;;;12.10;99.90;;;;;;6129890;29;20486;-64
2022/04/22 06:32:41;;;;;;;10.97;10.07;;;12.10;99.90;;;;;;6129805;29;20983;-62
2022/04/22 06:35:44;;;;;;;12.73;10.90;;;12.10;99.90;;;;;;6129176;29;20479;-62
2022/04/22 06:38:48;;;;;;;12.53;10.23;;;12.10;99.90;;;;;;6129308;29;20489;-62
2022/04/22 06:48:36;;;;;;;11.60;10.50;;;12.10;99.90;;;;;;6129078;29;20472;-62
2022/04/22 06:51:48;;;;;;;11.87;10.77;;;12.10;99.90;;;;;;6129157;29;20503;-62
2022/04/22 06:54:51;;;;;;;12.40;11.10;;;12.10;99.90;;;;;;6128833;29;20488;-62
2022/04/22 06:57:58;;;;;;;11.50;10.40;;;12.10;99.90;;;;;;6129104;29;20476;-62
2022/04/22 07:01:01;;;;;;;11.73;10.73;;;12.10;99.90;;;;;;6129073;29;20475;-62
2022/04/22 07:04:27;;;;;;;11.30;10.27;;;12.10;99.90;;;;;;6128705;28;20475;-62
2022/04/22 07:07:30;;;;;;;12.13;10.93;;;12.10;99.90;;;;;;6129344;29;20459;-62
2022/04/22 07:10:34;;;;;;;12.30;11.20;;;12.00;99.90;;;;;;6132771;29;20470;-63
2022/04/22 07:13:38;;;;;;;11.67;10.57;;;12.00;99.90;;;;;;6133931;28;20811;-63
2022/04/22 07:16:45;;;;;;;11.93;10.80;;;11.90;99.90;;;;;;6132678;29;20471;-63
2022/04/22 07:19:50;;;;;;;11.47;10.27;;;12.00;99.90;;;;;;6133450;29;20471;-65
2022/04/22 07:22:54;;;;;;;12.73;11.53;;;12.00;99.90;;;;;;6131240;29;20476;-64
2022/04/22 07:25:59;;;;;;;13.23;11.43;;;12.00;99.90;;;;;;6132721;29;20474;-65
2022/04/22 07:29:05;;;;;;;10.67;9.73;;;12.00;99.90;;;;;;6132093;29;20824;-64
2022/04/22 07:32:10;;;;;;;11.33;10.10;;;12.00;99.90;;;;;;6131871;29;20478;-63
2022/04/22 07:35:16;;;;;;;11.37;10.37;;;12.00;99.90;;;;;;6132615;29;20483;-64
2022/04/22 07:38:21;;;;;;;12.87;11.57;;;12.00;99.90;;;;;;6132129;29;20902;-64
2022/04/22 07:41:27;;;;;;;12.93;11.70;;;12.20;99.90;;;;;;6127717;29;20472;-65
2022/04/22 07:47:51;;;;;;;10.80;9.87;;;12.30;99.90;;;;;;6132668;29;20957;-64
2022/04/22 07:50:56;;;;;;;11.17;10.13;;;12.40;99.90;;;;;;6133184;29;20797;-64
2022/04/22 07:54:00;;;;;;;11.87;10.77;;;12.50;99.90;;;;;;6142786;29;20487;-65
2022/04/22 07:57:04;;;;;;;11.90;10.73;;;12.50;99.90;;;;;;6120348;29;20486;-65
2022/04/22 08:00:08;;;;;;;10.03;9.20;;;12.50;99.90;;;;;;6109233;29;20476;-64
2022/04/22 08:03:12;;;;;;;10.40;9.47;;;12.50;99.90;;;;;;6108856;29;20499;-64
2022/04/22 08:06:16;;;;;;;11.97;10.80;;;12.60;99.90;;;;;;6109234;29;20482;-64
2022/04/22 08:09:20;;;;;;;11.13;10.13;;;12.60;99.90;;;;;;6108493;29;20481;-63
2022/04/22 08:12:23;;;;;;;10.57;9.67;;;12.70;99.90;;;;;;6107969;29;20934;-63
2022/04/22 08:15:33;;;;;;;11.20;10.20;;;12.80;99.90;;;;;;6108210;29;20480;-64
2022/04/22 08:18:36;;;;;;;10.43;9.43;;;12.90;99.90;;;;;;6108016;29;20919;-65
2022/04/22 08:21:40;;;;;;;10.73;9.73;;;12.90;99.90;;;;;;6107467;29;20491;-64
2022/04/22 08:24:43;;;;;;;11.33;10.23;;;12.90;99.90;;;;;;6108396;29;20481;-64
2022/04/22 08:27:47;;;;;;;11.40;10.20;;;13.00;99.90;;;;;;6108910;29;20476;-63
2022/04/22 08:30:51;;;;;;;10.97;9.97;;;13.00;99.90;;;;;;6109456;29;20852;-65
2022/04/22 08:33:56;;;;;;;10.17;9.27;;;13.10;99.90;;;;;;6108954;29;20984;-63
2022/04/22 08:37:01;;;;;;;10.63;9.73;;;13.20;99.90;;;;;;6109920;29;20491;-62
2022/04/22 08:40:06;;;;;;;10.70;9.60;;;13.30;99.90;;;;;;6107352;29;20511;-63
2022/04/22 08:43:12;;;;;;;11.73;10.53;;;13.40;99.90;;;;;;6105365;29;20616;-62
2022/04/22 08:52:58;;;;;;;10.50;9.40;;;13.80;99.90;;;;;;6106995;29;21038;-63
2022/04/22 08:56:02;;;;;;;10.50;9.60;;;13.90;99.90;;;;;;6124886;29;20483;-61
2022/04/22 08:59:06;;;;;;;9.67;8.77;;;14.00;99.90;;;;;;6130647;29;20472;-63
2022/04/22 09:02:09;;;;;;;9.27;8.47;;;14.00;99.90;;;;;;6129196;28;20826;-63
2022/04/22 09:05:13;;;;;;;9.63;8.63;;;14.00;99.90;;;;;;6130235;29;20538;-65
2022/04/22 09:08:20;;;;;;;10.60;9.70;;;13.90;99.90;;;;;;6130353;29;20487;-62
2022/04/22 09:11:23;;;;;;;8.80;8.03;;;13.90;99.90;;;;;;6128797;29;20463;-62
2022/04/22 09:14:26;;;;;;;8.40;7.80;;;14.00;99.90;;;;;;6129429;29;20494;-63
2022/04/22 09:17:30;;;;;;;9.40;8.60;;;14.00;99.90;;;;;;6129468;29;20476;-64
2022/04/22 09:20:35;;;;;;;8.23;7.53;;;14.00;99.90;;;;;;6129763;29;20493;-66
2022/04/22 09:23:40;;;;;;;9.17;8.37;;;14.00;99.90;;;;;;6129857;29;20494;-64
2022/04/22 09:26:44;;;;;;;8.87;8.17;;;13.90;99.90;;;;;;6129855;29;20480;-65
2022/04/22 09:29:54;;;;;;;9.17;8.37;;;13.70;99.90;;;;;;6129527;29;20987;-66
2022/04/22 09:32:59;;;;;;;8.13;7.43;;;13.60;99.90;;;;;;6129160;29;20486;-66
2022/04/22 09:42:49;;;;;;;9.60;8.70;;;13.40;99.90;;;;;;6105982;29;20489;-63
2022/04/22 09:45:53;;;;;;;9.53;8.63;;;13.30;99.90;;;;;;6106580;29;20803;-63
2022/04/22 09:48:57;;;;;;;8.70;7.90;;;13.30;99.90;;;;;;6127295;29;20801;-64
2022/04/22 09:52:05;;;;;;;8.80;8.10;;;13.30;99.90;;;;;;6135726;29;20507;-66
2022/04/22 09:55:14;;;;;;;10.00;8.70;;;13.30;99.90;;;;;;6142441;29;20484;-64
2022/04/22 09:58:25;;;;;;;8.60;7.80;;;13.40;99.90;;;;;;6159909;28;20451;-64
2022/04/22 10:01:28;;;;;;;8.57;7.67;;;13.40;99.90;;;;;;6154059;29;20917;-66
2022/04/22 10:04:53;;;;;;;9.60;8.80;;;13.40;99.90;;;;;;6155423;29;20475;-63
2022/04/22 10:07:57;;;;;;;8.03;7.33;;;13.50;99.90;;;;;;6158475;29;20549;-62
2022/04/22 10:11:04;;;;;;;9.20;8.50;;;13.50;99.90;;;;;;6155086;29;20573;-62
2022/04/22 10:14:10;;;;;;;16.30;8.00;;;13.50;99.90;;;;;;6152158;29;20494;-62
2022/04/22 10:17:15;;;;;;;8.83;8.03;;;13.50;99.90;;;;;;6151256;29;20966;-62
2022/04/22 10:20:20;;;;;;;8.63;7.90;;;13.40;99.90;;;;;;6151932;29;20475;-62
2022/04/22 10:23:24;;;;;;;8.70;7.90;;;13.30;99.90;;;;;;6138740;29;20503;-62
2022/04/22 10:26:29;;;;;;;8.00;7.20;;;13.30;99.90;;;;;;6129426;29;20472;-62
2022/04/22 10:29:34;;;;;;;8.23;7.60;;;13.30;99.90;;;;;;6129300;29;20479;-63
2022/04/22 10:32:39;;;;;;;8.40;7.67;;;13.20;99.90;;;;;;6129261;29;20968;-63
2022/04/22 10:35:44;;;;;;;8.50;7.80;;;13.20;99.90;;;;;;6128929;29;20835;-63
2022/04/22 10:38:49;;;;;;;9.37;8.50;;;13.30;99.90;;;;;;6128868;29;20795;-63
2022/04/22 10:41:53;;;;;;;8.50;7.80;;;13.30;99.90;;;;;;6129034;29;20773;-64
2022/04/22 10:48:21;;;;;;;9.43;7.47;;;13.30;99.90;;;;;;6133703;29;20475;-64
2022/04/22 10:51:24;;;;;;;9.47;8.67;;;13.30;99.90;;;;;;6133363;29;20490;-63
2022/04/22 10:55:05;;;;;;;8.73;7.93;;;13.30;99.90;;;;;;6133102;29;20498;-64
2022/04/22 10:58:23;;;;;;;9.10;8.30;;;13.20;99.90;;;;;;6109480;29;20476;-63
2022/04/22 11:01:31;;;;;;;9.93;8.23;;;13.20;99.90;;;;;;6109350;29;20463;-64
2022/04/22 11:04:36;;;;;;;9.20;8.20;;;13.10;99.90;;;;;;6109687;29;20481;-63
2022/04/22 11:07:53;;;;;;;10.60;9.70;;;13.20;99.90;;;;;;6109433;29;20859;-63
2022/04/22 11:11:22;;;;;;;10.90;9.80;;;13.10;99.90;;;;;;6108980;29;20481;-63
2022/04/22 11:14:28;;;;;;;10.00;9.20;;;13.10;99.90;;;;;;6109653;29;20476;-63
2022/04/22 11:17:33;;;;;;;9.03;8.13;;;13.10;99.90;;;;;;6109174;29;20477;-63
2022/04/22 11:20:37;;;;;;;10.23;9.00;;;13.10;99.90;;;;;;6109401;29;20472;-63
2022/04/22 11:23:44;;;;;;;9.47;8.67;;;13.10;99.90;;;;;;6124131;29;20475;-64
2022/04/22 11:26:48;;;;;;;9.80;8.80;;;13.00;99.90;;;;;;6132721;29;20503;-63
2022/04/22 11:29:54;;;;;;;9.30;8.50;;;13.10;99.90;;;;;;6133144;29;20476;-63
2022/04/22 11:33:07;;;;;;;8.97;8.07;;;13.10;99.90;;;;;;6133405;29;20493;-64
2022/04/22 11:36:10;;;;;;;9.90;9.00;;;13.10;99.90;;;;;;6135027;29;20476;-64
2022/04/22 11:39:20;;;;;;;10.53;9.53;;;13.10;99.90;;;;;;6139921;29;20484;-63
2022/04/22 11:42:24;;;;;;;10.73;9.50;;;13.20;99.90;;;;;;6134628;29;20482;-63
2022/04/22 11:45:29;;;;;;;10.13;7.97;;;13.30;99.90;;;;;;6132518;29;20486;-64
2022/04/22 11:48:32;;;;;;;8.40;7.60;;;13.40;99.90;;;;;;6132856;29;20482;-63
2022/04/22 11:51:37;;;;;;;9.27;8.57;;;13.40;99.90;;;;;;6132404;29;20480;-63
2022/04/22 11:54:44;;;;;;;8.90;8.10;;;13.40;99.90;;;;;;6123443;29;20798;-64
2022/04/22 11:57:48;;;;;;;8.97;8.10;;;13.40;99.90;;;;;;6132238;29;20484;-63
2022/04/22 12:10:55;;;;;;;9.30;8.23;;;13.40;99.90;;;;;;6133002;29;20496;-63
2022/04/22 12:13:59;;;;;;;8.13;7.43;;;13.40;99.90;;;;;;6132814;29;20475;-64
2022/04/22 12:17:04;;;;;;;8.53;7.73;;;13.30;99.90;;;;;;6132177;29;20487;-63
2022/04/22 12:20:10;;;;;;;10.30;8.90;;;13.30;99.90;;;;;;6132289;29;20472;-65
2022/04/22 12:23:13;;;;;;;11.47;10.27;;;13.30;99.90;;;;;;6131278;29;20540;-64
2022/04/22 12:26:19;;;;;;;9.57;8.77;;;13.20;99.90;;;;;;6132182;29;21011;-64
2022/04/22 12:29:24;;;;;;;9.33;8.53;;;13.20;99.90;;;;;;6132306;29;20476;-63
2022/04/22 12:32:31;;;;;;;10.67;9.73;;;13.20;99.90;;;;;;6131184;29;20490;-62
2022/04/22 12:35:34;;;;;;;8.53;7.80;;;13.20;99.90;;;;;;6131647;29;20471;-61
2022/04/22 12:38:37;;;;;;;8.23;7.53;;;13.30;99.90;;;;;;6130909;29;20483;-61
2022/04/22 12:41:45;;;;;;;15.70;8.37;;;13.40;99.90;;;;;;6131166;29;20471;-62
2022/04/22 12:52:14;;;;;;;8.40;7.60;;;13.30;99.90;;;;;;6130363;29;20491;-62
2022/04/22 12:55:19;;;;;;;9.70;8.60;;;13.20;99.90;;;;;;6129990;29;20508;-62
2022/04/22 12:58:22;;;;;;;10.07;9.10;;;13.20;99.90;;;;;;6130129;29;20440;-61
2022/04/22 13:01:27;;;;;;;9.80;8.80;;;13.20;99.90;;;;;;6130551;29;20448;-62
2022/04/22 13:04:33;;;;;;;9.63;8.80;;;13.10;99.90;;;;;;6130533;29;20468;-62
2022/04/22 13:07:41;;;;;;;9.80;8.90;;;13.00;99.90;;;;;;6129679;29;20959;-62
2022/04/22 13:10:45;;;;;;;9.83;8.90;;;13.00;99.90;;;;;;6130069;29;20995;-62
2022/04/22 13:13:48;;;;;;;11.60;9.50;;;12.90;99.90;;;;;;6130093;29;20547;-62
2022/04/22 13:16:52;;;;;;;10.67;9.63;;;12.80;99.90;;;;;;6129950;29;20537;-62
2022/04/22 13:19:56;;;;;;;11.97;10.77;;;12.80;99.90;;;;;;6130052;29;20484;-62
2022/04/22 13:23:00;;;;;;;12.53;11.23;;;12.80;99.90;;;;;;6130162;29;20495;-62
2022/04/22 13:26:03;;;;;;;13.50;12.20;;;12.80;99.90;;;;;;6129754;29;20526;-62
2022/04/22 13:29:06;;;;;;;14.10;12.80;;;12.80;99.90;;;;;;6131091;29;20478;-63
2022/04/22 13:32:10;;;;;;;12.80;11.47;;;12.80;99.90;;;;;;6130272;29;20569;-63
2022/04/22 13:35:15;;;;;;;13.07;11.80;;;12.80;99.90;;;;;;6129275;29;20475;-62
2022/04/22 13:38:18;;;;;;;10.97;9.97;;;12.80;99.90;;;;;;6129364;29;20992;-62
2022/04/22 13:41:21;;;;;;;12.33;11.13;;;12.70;99.90;;;;;;6129584;29;20468;-62
2022/04/22 13:54:27;;;;;;;11.83;10.63;;;12.40;99.90;;;;;;6128656;29;20491;-62
2022/04/22 13:57:31;;;;;;;14.23;12.83;;;12.50;99.90;;;;;;6128867;29;20486;-62
2022/04/22 14:00:35;;;;;;;13.33;12.03;;;12.40;99.90;;;;;;6120341;29;20935;-62
2022/04/22 14:03:39;;;;;;;13.90;12.57;;;12.50;99.90;;;;;;6129220;29;20587;-62
2022/04/22 14:06:44;;;;;;;13.73;12.43;;;12.30;99.90;;;;;;6129439;29;20495;-62
2022/04/22 14:09:47;;;;;;;13.67;12.47;;;12.30;99.90;;;;;;6130185;29;20479;-63
2022/04/22 14:12:50;;;;;;;14.87;13.40;;;12.20;99.90;;;;;;6128983;29;20484;-62
2022/04/22 14:15:53;;;;;;;14.33;12.97;;;12.20;99.90;;;;;;6128667;29;20475;-62
2022/04/22 14:18:57;;;;;;;16.03;14.53;;;12.20;99.90;;;;;;6131768;29;20813;-62
2022/04/22 14:22:01;;;;;;;14.30;12.93;;;12.20;99.90;;;;;;6133988;29;20483;-63
2022/04/22 14:25:06;;;;;;;15.30;13.80;;;12.30;99.90;;;;;;6134423;29;20494;-63
2022/04/22 14:28:09;;;;;;;14.27;12.87;;;12.20;99.90;;;;;;6135137;29;20483;-62
2022/04/22 14:31:12;;;;;;;14.40;13.10;;;12.20;99.90;;;;;;6134137;29;20451;-63
2022/04/22 14:34:16;;;;;;;11.97;10.87;;;12.20;99.90;;;;;;6133365;29;20475;-63
2022/04/22 14:37:20;;;;;;;12.80;11.60;;;12.10;99.90;;;;;;6133601;29;20466;-63
2022/04/22 14:40:23;;;;;;;13.30;11.90;;;12.20;99.90;;;;;;6134293;29;20534;-64
2022/04/22 14:43:27;;;;;;;23.53;16.97;;;12.20;99.90;;;;;;6132938;29;20591;-62
2022/04/22 14:46:31;;;;;;;14.97;13.47;;;12.20;99.90;;;;;;6134112;29;20468;-62
2022/04/22 14:49:34;;;;;;;14.83;13.43;;;12.30;99.90;;;;;;6133363;29;20558;-61
2022/04/22 14:52:40;;;;;;;13.47;12.07;;;12.30;99.90;;;;;;6133142;29;20471;-63
2022/04/22 14:55:44;;;;;;;11.50;10.37;;;12.30;99.90;;;;;;6133009;29;20482;-63
2022/04/22 14:58:49;;;;;;;14.13;12.80;;;12.30;99.90;;;;;;6133113;29;20479;-60
2022/04/22 15:01:52;;;;;;;13.07;11.70;;;12.30;99.90;;;;;;6128602;29;20479;-63
2022/04/22 15:04:55;;;;;;;12.90;11.70;;;12.30;99.90;;;;;;6133153;29;21292;-62
2022/04/22 15:08:01;;;;;;;13.30;12.07;;;12.30;99.90;;;;;;6133652;29;20523;-63
2022/04/22 15:11:04;;;;;;;13.30;12.00;;;12.30;99.90;;;;;;6133770;29;20482;-62
2022/04/22 15:14:07;;;;;;;14.07;12.60;;;12.30;99.90;;;;;;6133183;29;20484;-61
2022/04/22 15:17:11;;;;;;;13.73;12.53;;;12.40;99.90;;;;;;6133024;29;20558;-60
2022/04/22 15:27:12;;;;;;;14.97;12.67;;;12.40;99.90;;;;;;6014865;29;20480;-61
2022/04/22 15:30:15;;;;;;;14.03;12.60;;;12.30;99.90;;;;;;6025700;29;20471;-60
2022/04/22 15:33:18;;;;;;;15.07;13.60;;;12.30;99.90;;;;;;6127626;29;20537;-62
2022/04/22 15:36:21;;;;;;;14.17;12.87;;;12.30;99.90;;;;;;6132654;29;20622;-61
2022/04/22 15:39:26;;;;;;;16.10;13.37;;;12.30;99.90;;;;;;6131170;29;20475;-62
2022/04/22 15:42:29;;;;;;;14.67;13.10;;;12.30;99.90;;;;;;6130375;29;20472;-63
2022/04/22 15:45:32;;;;;;;14.70;12.97;;;12.30;99.90;;;;;;6130878;29;20491;-63
2022/04/22 15:48:35;;;;;;;14.43;13.07;;;12.30;99.90;;;;;;6131449;29;20472;-62
2022/04/22 15:51:39;;;;;;;15.73;14.03;;;12.30;99.90;;;;;;6131654;29;21002;-63
2022/04/22 15:54:43;;;;;;;17.80;16.00;;;12.30;99.90;;;;;;6126871;29;20496;-62
2022/04/22 15:57:46;;;;;;;16.73;15.10;;;12.30;99.90;;;;;;6112305;29;20487;-62
2022/04/22 16:00:49;;;;;;;17.13;15.30;;;12.30;99.90;;;;;;6120434;29;20473;-62
2022/04/22 16:03:53;;;;;;;18.47;16.50;;;12.20;99.90;;;;;;6084764;29;20489;-62
2022/04/22 16:06:56;;;;;;;18.93;16.70;;;12.20;99.90;;;;;;6096724;29;20488;-62
2022/04/22 16:10:01;;;;;;;17.17;15.43;;;12.10;99.90;;;;;;6108321;29;20485;-62
2022/04/22 16:16:26;;;;;;;22.57;17.77;;;12.20;99.90;;;;;;6107619;29;20905;-62
2022/04/22 16:19:31;;;;;;;17.43;15.63;;;12.10;99.90;;;;;;6107820;29;20472;-61
2022/04/22 16:22:34;;;;;;;22.03;19.67;;;12.10;99.90;;;;;;6105100;29;20465;-61
2022/04/22 16:25:39;;;;;;;19.73;17.73;;;12.10;99.90;;;;;;6091779;29;20472;-61
2022/04/22 16:28:42;;;;;;;18.57;16.87;;;12.10;99.90;;;;;;6107926;29;20496;-62
2022/04/22 16:31:45;;;;;;;20.43;18.43;;;12.10;99.90;;;;;;6108888;29;20479;-61
2022/04/22 16:34:48;;;;;;;19.73;17.03;;;12.20;99.90;;;;;;6109757;29;20473;-60
2022/04/22 16:37:52;;;;;;;18.37;16.40;;;12.10;99.90;;;;;;6111081;29;20484;-63
2022/04/22 16:40:56;;;;;;;19.60;16.80;;;12.10;99.90;;;;;;6108256;29;20491;-60
2022/04/22 16:43:59;;;;;;;19.43;16.93;;;12.10;99.90;;;;;;6121761;29;20498;-60
2022/04/22 16:47:03;;;;;;;22.33;17.47;;;12.10;99.90;;;;;;6132006;29;20480;-61
2022/04/22 16:50:08;;;;;;;21.37;18.60;;;12.10;99.90;;;;;;6131695;29;20791;-62
2022/04/22 16:53:13;;;;;;;18.67;16.80;;;12.00;99.90;;;;;;6132140;29;20817;-61
2022/04/22 16:56:25;;;;;;;21.17;18.93;;;11.90;99.90;;;;;;6152733;29;20482;-62
2022/04/22 16:59:28;;;;;;;22.13;19.03;;;11.90;99.90;;;;;;6154585;29;20549;-61
2022/04/22 17:02:31;;;;;;;20.37;18.17;;;11.90;99.90;;;;;;6154314;29;20497;-62
2022/04/22 17:05:36;;;;;;;20.80;18.03;;;11.90;99.90;;;;;;6154713;29;20483;-62
2022/04/22 17:08:41;;;;;;;21.60;19.00;;;11.90;99.90;;;;;;6155755;29;20963;-63
2022/04/22 17:11:45;;;;;;;20.07;17.97;;;11.90;99.90;;;;;;6142050;29;20524;-62
2022/04/22 17:24:50;;;;;;;21.00;18.87;;;11.70;99.90;;;;;;6133541;29;20480;-61
2022/04/22 17:27:55;;;;;;;21.47;18.97;;;11.60;99.90;;;;;;6129740;29;21059;-62
2022/04/22 17:30:58;;;;;;;21.80;19.50;;;11.60;99.90;;;;;;6129832;29;20476;-64
2022/04/22 17:34:02;;;;;;;23.47;19.70;;;11.60;99.90;;;;;;6129634;29;20476;-63
2022/04/22 17:37:06;;;;;;;25.13;19.60;;;11.60;99.90;;;;;;6129662;29;20803;-63
2022/04/22 17:40:12;;;;;;;21.33;19.03;;;11.60;99.90;;;;;;6129652;29;20476;-63